Terminal Aerodrome Forecast
Issued by NWS St Louis, MO

Home | Current Version | Previous Version | Text Only | Print | Product List | Glossary On
Versions: 1 2 3 4 5 6 7 8 9 10 11 12 13 14 15 16
000
FTUS43 KLSX 261100
TAFCOU
TAF
KCOU 261138Z 2612/2712 14007KT P6SM OVC120
     FM261400 17008KT 5SM -RASN BR BKN020 OVC050
      TEMPO 2615/2617 2SM -SN BR SCT006 OVC010
     FM261700 29011KT P6SM VCSH SCT020 OVC050
     FM262300 31013KT P6SM OVC025=

USA.gov is the U.S. government's official web portal to all federal, state and local government web resources and services.